Terminal Aerodrome Forecast
Issued by NWS Wilmington, OH

Current Version | Previous Version | Text Only | Print | Product List | Glossary Off
Versions: 1 2 3 4 5 6 7 8 9 10 11 12 13 14 15 16 17 18 19 20 21

594
FTUS41 KILN 072343
TAFDAY
TAF
KDAY 072343Z 0800/0824 20011KT P6SM BKN150
     FM080300 21009KT P6SM BKN045 OVC120
     FM080700 24007KT P6SM BKN035 OVC100
     FM081600 26010KT P6SM -SHRA OVC040
     FM082200 27012KT P6SM BKN022 OVC035=

USA.gov is the U.S. government's official web portal to all federal, state and local government web resources and services.